Terminal Aerodrome Forecast
Issued by NWS St Louis, MO

Home | Current Version | Previous Version | Text Only | Print | Product List | Glossary On
Versions: 1 2 3 4 5 6 7 8 9 10 11 12 13 14 15 16 17 18 19 20 21 22 23 24 25 26 27 28 29 30 31
217
FTUS43 KLSX 280257 AAA
TAFSTL
TAF AMD
KSTL 280257Z 2803/0106 14010KT P6SM SCT080 BKN250
     FM280500 15011KT P6SM VCSH BKN040
     FM281100 17009KT P6SM BKN040
     FM281500 18013G19KT P6SM BKN050
     FM282000 19011G21KT P6SM VCSH BKN090
     FM010000 20011G21KT 5SM -TSRA SCT025CB BKN090=

USA.gov is the U.S. government's official web portal to all federal, state and local government web resources and services.